Sunday, February 01, 2015
19:42 UTC
  |  Log In   |  Register Free
Airport Search:

Southwest Georgia Regional Airport
(KABY)

FAA data valid effective January 08, 2015 - March 05, 2015 (unless otherwise noted).

 
 
 
 
 
 
 
 
 
 
 
 
 
 

Current Aviation Weather for Southwest Georgia Regional Airport (KABY)

The most recent METAR observation for KABY was updated at: 1907
METAR Summary (Translated METAR)
KABY
011853Z 21012KT 10SM BKN048 21/09 A3008 RMK AO2 SLP185 T02110089
KMGR
011855Z AUTO 17007G15KT 10SM SCT047 21/10 A3008 RMK AO2
(33.7 nm SE from KABY)
KACJ
011855Z AUTO 20009G14KT 10SM OVC046 19/09 A3008 RMK AO2
(34.5 nm NE from KABY)
TAF Summary (Translated TAF)
KABY
011748Z 0118/0218 18014G20KT P6SM FEW050 SCT250 FM020000 19014KT 6SM RA OVC015 FM020600 22013KT P6SM -SHRA OVC007 FM020900 25012KT P6SM VCSH OVC007 FM021100 29013G20KT P6SM BKN025 FM021300 30015G24KT P6SM SCT050
  Airport Weather Conditions for KABY

 Current Weather at ABY
70° F
Mostly Cloudy
Southwest winds at 13.8 mph
ABY NOAA Radar

Pressure: 30.08 in
Humidity: 46%
Wind: Southwest at 13.8 MPH (12 KT)
Dew Point: 48.0°F
Visibility: 10.00 mi


Airport Weather Forecast for KABY

Translated METAR and TAF for KABY
Translated METAR for KABY (1942 UTC 01 February 2015)
found at http://aviationweather.gov/adds/metars/
 
METAR text: KABY 011853Z 21012KT 10SM BKN048 21/09 A3008 RMK AO2 SLP185 T02110089
Conditions at: KABY (ALBANY , GA, US) observed 1853 UTC 01 February 2015
Temperature: 21.1°C (70°F)
Dewpoint: 8.9°C (48°F) [RH = 46%]
Pressure (altimeter): 30.08 inches Hg (1018.7 mb)
[Sea-level pressure: 1018.5 mb]
Winds: from the SSW (210 degrees) at 14 MPH (12 knots; 6.2 m/s)
Visibility: 10 or more miles (16+ km)
Ceiling: 4800 feet AGL
Clouds: broken clouds at 4800 feet AGL
Weather: no significant weather observed at this time
Translated TAF for KABY
Forecast for: KABY (ALBANY , GA, US)
TAF Text: KABY 011748Z 0118/0218 18014G20KT P6SM FEW050 SCT250
Forecast period: 1800 UTC 01 February 2015 to 0000 UTC 02 February 2015
Forecast type: FROM: standard forecast or significant change
Winds: from the S (180 degrees) at 16 MPH (14 knots; 7.3 m/s)
gusting to 23 MPH (20 knots; 10.4 m/s)
Visibility: 6 or more miles (10+ km)
Clouds: few clouds at 5000 feet AGL
scattered clouds at 25000 feet AGL
Weather: no significant weather forecast for this period
TAF Text: FM020000 19014KT 6SM RA OVC015
Forecast period: 0000 to 0600 UTC 02 February 2015
Forecast type: FROM: standard forecast or significant change
Winds: from the S (190 degrees) at 16 MPH (14 knots; 7.3 m/s)
Visibility: 6 miles (10 km)
Ceiling: 1500 feet AGL
Clouds: overcast cloud deck at 1500 feet AGL
Weather: RA  (rain)
TAF Text: FM020600 22013KT P6SM -SHRA OVC007
Forecast period: 0600 to 0900 UTC 02 February 2015
Forecast type: FROM: standard forecast or significant change
Winds: from the SW (220 degrees) at 15 MPH (13 knots; 6.8 m/s)
Visibility: 6 or more miles (10+ km)
Ceiling: 700 feet AGL
Clouds: overcast cloud deck at 700 feet AGL
Weather: -SHRA  (light rain showers)
TAF Text: FM020900 25012KT P6SM VCSH OVC007
Forecast period: 0900 to 1100 UTC 02 February 2015
Forecast type: FROM: standard forecast or significant change
Winds: from the WSW (250 degrees) at 14 MPH (12 knots; 6.2 m/s)
Visibility: 6 or more miles (10+ km)
Ceiling: 700 feet AGL
Clouds: overcast cloud deck at 700 feet AGL
Weather: VCSH  (showers in vicinity)
TAF Text: FM021100 29013G20KT P6SM BKN025
Forecast period: 1100 to 1300 UTC 02 February 2015
Forecast type: FROM: standard forecast or significant change
Winds: from the WNW (290 degrees) at 15 MPH (13 knots; 6.8 m/s)
gusting to 23 MPH (20 knots; 10.4 m/s)
Visibility: 6 or more miles (10+ km)
Ceiling: 2500 feet AGL
Clouds: broken clouds at 2500 feet AGL
Weather: no significant weather forecast for this period
TAF Text: FM021300 30015G24KT P6SM SCT050
Forecast period: 1300 to 1800 UTC 02 February 2015
Forecast type: FROM: standard forecast or significant change
Winds: from the WNW (300 degrees) at 17 MPH (15 knots; 7.8 m/s)
gusting to 28 MPH (24 knots; 12.5 m/s)
Visibility: 6 or more miles (10+ km)
Clouds: scattered clouds at 5000 feet AGL
Weather: no significant weather forecast for this period

Find All Airport Services Find A Hotel Find A Rental Car Find A Golf Course Find A Restaurant $100 Hamburger



FBO's on the Field
FBO Company Facility Photos Services Transportation Aviation Fuel Prices: Prices include tax
Catering Weather Repair Courtesy Rental Type 100LL JetA JetA+ MOGAS 8087
 
Eagles of America, Inc. - ABY

Currently rated 5 by 1 person
FS:Epic
Last Updated: Dec-31
Login to update fuel prices
SS:
Contact Eagles of America, Inc. - ABYMore FBO Information
 
Add another FBO Facility Photos Catering Weather Repair Courtesy Rental Type 100LL JetA JetA+ MOGAS 8087
Services Transportation Aviation Fuel Prices: Prices include tax


model-print
model-print
model-print
model-print